createdAt,value
2023-02-16T00:01:54.114Z,3.15
2023-02-16T00:04:27.110Z,3.71
2023-02-16T00:06:54.907Z,3.13
2023-02-16T00:09:22.875Z,3.66
2023-02-16T00:12:23.748Z,3.55
2023-02-16T00:14:50.310Z,3.57
2023-02-16T00:17:16.852Z,3.55
2023-02-16T00:19:43.433Z,3.52
2023-02-16T00:22:11.418Z,2.88
2023-02-16T00:24:38.014Z,3.37
2023-02-16T00:27:13.238Z,3.38
2023-02-16T00:29:39.835Z,3.09
2023-02-16T00:32:12.644Z,3.16
2023-02-16T00:34:43.033Z,3.33
2023-02-16T00:37:12.132Z,2.68
2023-02-16T00:39:40.299Z,3.29
2023-02-16T00:42:21.341Z,3.30
2023-02-16T00:44:54.169Z,3.19
2023-02-16T00:47:27.608Z,3.18
2023-02-16T00:49:56.407Z,3.14
2023-02-16T00:52:33.884Z,3.19
2023-02-16T00:55:04.040Z,3.16
2023-02-16T00:57:35.562Z,3.04
2023-02-16T01:00:13.083Z,2.40
2023-02-16T01:02:39.677Z,3.12
2023-02-16T01:05:06.738Z,3.17
2023-02-16T01:07:54.823Z,3.11
2023-02-16T01:10:40.021Z,3.17
2023-02-16T01:13:06.850Z,3.25
2023-02-16T01:15:34.711Z,3.31
2023-02-16T01:18:01.452Z,3.30
2023-02-16T01:20:28.747Z,3.19
2023-02-16T01:22:55.447Z,3.33
2023-02-16T01:25:22.198Z,2.98
2023-02-16T01:27:48.812Z,2.93
2023-02-16T01:30:22.784Z,3.25
2023-02-16T01:32:51.773Z,3.46
2023-02-16T01:35:20.464Z,3.40
2023-02-16T01:37:47.317Z,3.32
2023-02-16T01:40:35.106Z,3.47
2023-02-16T01:43:10.746Z,2.87
2023-02-16T01:45:43.177Z,3.43
2023-02-16T01:48:22.200Z,3.38
2023-02-16T01:51:20.491Z,2.80
2023-02-16T01:54:06.732Z,3.43
2023-02-16T01:56:41.722Z,3.09
2023-02-16T01:59:18.031Z,3.10
2023-02-16T02:02:12.119Z,3.40
2023-02-16T02:05:10.298Z,3.40
2023-02-16T02:08:30.887Z,3.39
2023-02-16T02:11:23.863Z,3.40
2023-02-16T02:14:01.006Z,3.38
2023-02-16T02:16:28.438Z,3.39
2023-02-16T02:18:55.217Z,2.77
2023-02-16T02:22:17.610Z,3.40
2023-02-16T02:25:06.206Z,3.39
2023-02-16T02:27:57.316Z,3.43
2023-02-16T02:30:31.660Z,3.47
2023-02-16T02:32:58.210Z,3.17
2023-02-16T02:35:37.125Z,3.46
2023-02-16T02:38:41.830Z,3.50
2023-02-16T02:41:53.224Z,3.43
2023-02-16T02:44:27.030Z,3.41
2023-02-16T02:46:53.761Z,3.33
2023-02-16T02:49:20.331Z,3.40
2023-02-16T02:51:47.568Z,3.00
2023-02-16T02:54:38.912Z,3.46
2023-02-16T02:57:40.088Z,2.88
2023-02-16T03:00:32.000Z,3.47
2023-02-16T03:03:04.236Z,2.92
2023-02-16T03:05:32.981Z,3.13
2023-02-16T03:08:13.975Z,3.60
2023-02-16T03:11:05.603Z,3.47
2023-02-16T03:13:39.383Z,3.63
2023-02-16T03:16:12.316Z,3.67
2023-02-16T03:18:59.839Z,3.17
2023-02-16T03:21:46.980Z,3.75
2023-02-16T03:24:45.154Z,3.43
2023-02-16T03:27:32.934Z,3.36
2023-02-16T03:30:01.275Z,3.33
2023-02-16T03:32:28.038Z,3.82
2023-02-16T03:34:54.650Z,3.78
2023-02-16T03:37:21.201Z,3.26
2023-02-16T03:40:07.774Z,3.19
2023-02-16T03:42:34.351Z,3.88
2023-02-16T03:45:00.904Z,3.78
2023-02-16T03:47:27.503Z,3.68
2023-02-16T03:49:54.067Z,3.71
2023-02-16T03:52:20.659Z,3.67
2023-02-16T03:54:47.199Z,3.11
2023-02-16T03:57:13.809Z,3.03
2023-02-16T03:59:40.323Z,3.25
2023-02-16T04:02:06.903Z,3.53
2023-02-16T04:04:33.572Z,3.56
2023-02-16T04:07:00.151Z,3.02
2023-02-16T04:09:26.671Z,3.04
2023-02-16T04:12:11.762Z,3.57
2023-02-16T04:14:38.250Z,3.69
2023-02-16T04:17:04.812Z,3.72
2023-02-16T04:19:31.322Z,3.66
2023-02-16T04:21:57.801Z,3.75
2023-02-16T04:24:24.283Z,3.31
2023-02-16T04:26:50.880Z,3.79
2023-02-16T04:29:17.427Z,3.99
2023-02-16T04:31:44.137Z,4.06
2023-02-16T04:34:10.907Z,4.07
2023-02-16T04:36:37.455Z,4.09
2023-02-16T04:39:04.398Z,3.71
2023-02-16T04:41:30.958Z,4.29
2023-02-16T04:43:57.649Z,4.24
2023-02-16T04:46:24.490Z,4.33
2023-02-16T04:48:51.007Z,3.75
2023-02-16T04:51:17.565Z,4.30
2023-02-16T04:53:44.323Z,4.36
2023-02-16T04:56:11.935Z,4.47
2023-02-16T04:58:38.723Z,4.50
2023-02-16T05:01:05.749Z,4.54
2023-02-16T05:03:33.097Z,4.54
2023-02-16T05:05:59.919Z,4.67
2023-02-16T05:08:26.776Z,4.73
2023-02-16T05:11:12.142Z,4.35
2023-02-16T05:13:57.216Z,4.30
2023-02-16T05:16:24.429Z,4.75
2023-02-16T05:18:51.055Z,4.92
2023-02-16T05:21:32.694Z,4.95
2023-02-16T05:23:59.796Z,4.97
2023-02-16T05:26:27.012Z,4.70
2023-02-16T05:28:53.922Z,5.07
2023-02-16T05:31:21.398Z,5.06
2023-02-16T05:33:48.088Z,5.08
2023-02-16T05:36:14.747Z,5.10
2023-02-16T05:38:41.648Z,5.06
2023-02-16T05:41:08.158Z,5.11
2023-02-16T05:43:34.918Z,4.71
2023-02-16T05:46:08.258Z,5.09
2023-02-16T05:48:34.853Z,4.68
2023-02-16T05:51:01.850Z,5.08
2023-02-16T05:53:28.595Z,4.72
2023-02-16T05:55:55.084Z,5.12
2023-02-16T05:58:21.680Z,5.09
2023-02-16T06:00:48.164Z,4.76
2023-02-16T06:03:14.651Z,4.72
2023-02-16T06:05:41.268Z,5.31
2023-02-16T06:08:08.134Z,4.84
2023-02-16T06:10:34.680Z,5.17
2023-02-16T06:13:01.180Z,5.42
2023-02-16T06:15:27.991Z,4.62
2023-02-16T06:17:54.605Z,5.32
2023-02-16T06:20:21.096Z,5.45
2023-02-16T06:22:47.667Z,5.50
2023-02-16T06:25:14.208Z,5.51
2023-02-16T06:27:40.698Z,5.50
2023-02-16T06:30:08.629Z,5.55
2023-02-16T06:32:35.214Z,5.54
2023-02-16T06:35:01.745Z,5.51
2023-02-16T06:37:28.313Z,5.47
2023-02-16T06:39:54.784Z,5.58
2023-02-16T06:42:21.526Z,5.27
2023-02-16T06:44:48.064Z,5.70
2023-02-16T06:47:14.596Z,5.74
2023-02-16T06:49:41.149Z,5.72
2023-02-16T06:52:08.048Z,5.79
2023-02-16T06:54:34.605Z,5.82
2023-02-16T06:57:01.124Z,5.86
2023-02-16T06:59:27.602Z,5.81
2023-02-16T07:01:54.116Z,5.82
2023-02-16T07:04:20.684Z,5.83
2023-02-16T07:06:47.258Z,5.78
2023-02-16T07:09:13.789Z,5.88
2023-02-16T07:11:40.587Z,5.88
2023-02-16T07:14:07.121Z,5.96
2023-02-16T07:16:33.687Z,5.94
2023-02-16T07:19:00.212Z,5.61
2023-02-16T07:21:26.806Z,5.64
2023-02-16T07:23:53.366Z,5.99
2023-02-16T07:26:19.898Z,6.00
2023-02-16T07:28:46.457Z,5.54
2023-02-16T07:31:15.200Z,6.16
2023-02-16T07:33:42.530Z,6.19
2023-02-16T07:36:10.613Z,5.91
2023-02-16T07:38:37.679Z,5.72
2023-02-16T07:41:07.803Z,6.46
2023-02-16T07:43:35.735Z,6.46
2023-02-16T07:46:02.308Z,5.72
2023-02-16T07:48:28.868Z,6.08
2023-02-16T07:50:55.430Z,6.63
2023-02-16T07:53:22.005Z,6.36
2023-02-16T07:55:48.616Z,6.08
2023-02-16T07:58:27.391Z,6.76
2023-02-16T08:00:56.544Z,7.02
2023-02-16T08:03:24.096Z,7.26
2023-02-16T08:05:50.772Z,7.31
2023-02-16T08:08:17.331Z,7.55
2023-02-16T08:10:43.916Z,7.73
2023-02-16T08:13:10.445Z,7.72
2023-02-16T08:15:36.949Z,7.91
2023-02-16T08:18:03.837Z,7.50
2023-02-16T08:20:48.245Z,8.00
2023-02-16T08:23:16.869Z,8.12
2023-02-16T08:25:44.005Z,8.14
2023-02-16T08:28:14.652Z,8.09
2023-02-16T08:30:41.133Z,8.22
2023-02-16T08:33:07.637Z,8.31
2023-02-16T08:35:38.463Z,8.12
2023-02-16T08:38:07.691Z,8.37
2023-02-16T08:40:34.152Z,8.35
2023-02-16T08:43:00.630Z,8.37
2023-02-16T08:45:27.270Z,8.41
2023-02-16T08:47:54.034Z,8.47
2023-02-16T08:50:20.584Z,8.05
2023-02-16T08:52:47.269Z,8.58
2023-02-16T08:55:13.985Z,8.13
2023-02-16T08:57:40.746Z,7.87
2023-02-16T09:00:26.321Z,7.96
2023-02-16T09:02:52.806Z,8.27
2023-02-16T09:05:19.331Z,8.33
2023-02-16T09:07:45.827Z,8.70
2023-02-16T09:10:12.751Z,8.81
2023-02-16T09:12:39.295Z,8.84
2023-02-16T09:15:05.956Z,8.95
2023-02-16T09:17:32.558Z,8.96
2023-02-16T09:19:59.047Z,8.87
2023-02-16T09:22:25.710Z,8.85
2023-02-16T09:24:52.699Z,8.96
2023-02-16T09:27:20.104Z,8.97
2023-02-16T09:29:46.641Z,9.08
2023-02-16T09:32:13.153Z,8.63
2023-02-16T09:34:39.688Z,8.73
2023-02-16T09:37:06.323Z,9.21
2023-02-16T09:39:33.693Z,9.14
2023-02-16T09:42:11.653Z,9.17
2023-02-16T09:44:44.497Z,9.23
2023-02-16T09:47:26.130Z,9.31
2023-02-16T09:49:56.387Z,9.30
2023-02-16T09:52:36.919Z,9.45
2023-02-16T09:55:13.112Z,9.09
2023-02-16T09:58:11.161Z,9.77
2023-02-16T10:01:05.497Z,9.81
2023-02-16T10:03:55.423Z,9.90
2023-02-16T10:06:33.882Z,9.97
2023-02-16T10:09:12.590Z,9.42
2023-02-16T10:11:49.529Z,9.84
2023-02-16T10:14:33.569Z,9.70
2023-02-16T10:17:19.151Z,9.75
2023-02-16T10:20:24.835Z,9.74
2023-02-16T10:22:57.797Z,9.64
2023-02-16T10:25:32.965Z,9.47
2023-02-16T10:28:15.965Z,9.63
2023-02-16T10:30:52.087Z,9.11
2023-02-16T10:33:42.064Z,9.59
2023-02-16T10:36:27.350Z,9.55
2023-02-16T10:39:18.220Z,9.57
2023-02-16T10:41:50.568Z,9.50
2023-02-16T10:44:25.990Z,9.64
2023-02-16T10:47:00.455Z,9.60
2023-02-16T10:49:29.667Z,9.12
2023-02-16T10:51:57.483Z,9.69
2023-02-16T10:54:27.267Z,9.79
2023-02-16T10:56:59.515Z,9.71
2023-02-16T10:59:33.745Z,10.16
2023-02-16T11:02:04.212Z,10.31
2023-02-16T11:04:34.575Z,9.82
2023-02-16T11:07:10.732Z,10.11
2023-02-16T11:09:38.359Z,10.09
2023-02-16T11:12:23.463Z,9.97
2023-02-16T11:14:53.757Z,9.76
2023-02-16T11:17:22.543Z,9.65
2023-02-16T11:20:05.480Z,9.12
2023-02-16T11:22:33.828Z,9.48
2023-02-16T11:25:22.024Z,9.35
2023-02-16T11:28:07.057Z,9.16
2023-02-16T11:30:38.219Z,8.67
2023-02-16T11:33:22.203Z,8.24
2023-02-16T11:35:49.248Z,8.77
2023-02-16T11:38:34.259Z,8.78
2023-02-16T11:41:03.727Z,8.48
2023-02-16T11:43:38.621Z,8.79
2023-02-16T11:46:14.637Z,8.42
2023-02-16T11:48:41.275Z,8.86
2023-02-16T11:51:09.444Z,8.86
2023-02-16T11:53:40.556Z,8.52
2023-02-16T11:56:23.147Z,8.62
2023-02-16T11:59:21.679Z,9.08
2023-02-16T12:02:12.293Z,9.21
2023-02-16T12:04:54.064Z,9.27
2023-02-16T12:07:40.312Z,9.29
2023-02-16T12:10:19.970Z,9.43
2023-02-16T12:12:46.501Z,9.53
2023-02-16T12:15:34.933Z,9.16
2023-02-16T12:18:26.844Z,9.68
2023-02-16T12:21:11.482Z,9.77
2023-02-16T12:24:09.265Z,9.79
2023-02-16T12:26:40.854Z,9.92
2023-02-16T12:29:26.203Z,10.00
2023-02-16T12:32:10.544Z,9.68
2023-02-16T12:34:59.560Z,10.27
2023-02-16T12:37:47.931Z,10.36
2023-02-16T12:40:36.256Z,10.57
2023-02-16T12:43:21.635Z,10.74
2023-02-16T12:45:49.610Z,10.47
2023-02-16T12:48:41.708Z,11.18
2023-02-16T12:51:20.209Z,10.50
2023-02-16T12:54:04.303Z,11.69
2023-02-16T12:56:42.553Z,12.90
2023-02-16T12:59:46.984Z,13.24
2023-02-16T13:02:36.434Z,15.32
2023-02-16T13:05:09.558Z,16.56
2023-02-16T13:07:42.997Z,17.67
2023-02-16T13:10:38.374Z,18.25
2023-02-16T13:13:09.287Z,18.25
2023-02-16T13:15:58.513Z,18.47
2023-02-16T13:18:32.347Z,17.65
2023-02-16T13:21:21.875Z,18.30
2023-02-16T13:24:13.297Z,17.90
2023-02-16T13:27:05.685Z,17.64
2023-02-16T13:29:52.671Z,16.72
2023-02-16T13:32:45.139Z,16.30
2023-02-16T13:35:48.626Z,15.92
2023-02-16T13:38:50.974Z,15.37
2023-02-16T13:41:41.697Z,15.54
2023-02-16T13:44:14.596Z,15.69
2023-02-16T13:46:50.079Z,15.72
2023-02-16T13:49:42.368Z,15.39
2023-02-16T13:52:11.855Z,15.34
2023-02-16T13:54:41.896Z,15.36
2023-02-16T13:57:13.313Z,15.06
2023-02-16T13:59:39.729Z,15.06
2023-02-16T14:02:12.997Z,14.86
2023-02-16T14:04:39.613Z,14.89
2023-02-16T14:07:10.228Z,14.62
2023-02-16T14:09:36.778Z,14.49
2023-02-16T14:12:17.553Z,14.39
2023-02-16T14:14:58.898Z,14.15
2023-02-16T14:17:29.174Z,13.66
2023-02-16T14:20:00.604Z,14.06
2023-02-16T14:22:33.245Z,14.43
2023-02-16T14:25:01.947Z,14.64
2023-02-16T14:27:47.447Z,14.56
2023-02-16T14:30:31.202Z,14.54
2023-02-16T14:33:12.997Z,14.56
2023-02-16T14:35:42.854Z,14.56
2023-02-16T14:38:27.520Z,14.84
2023-02-16T14:41:03.240Z,15.04
2023-02-16T14:43:42.787Z,14.99
2023-02-16T14:46:42.342Z,15.04
2023-02-16T14:49:29.009Z,15.36
2023-02-16T14:52:28.658Z,15.82
2023-02-16T14:55:01.716Z,15.65
2023-02-16T14:57:37.879Z,15.92
2023-02-16T15:00:13.494Z,15.99
2023-02-16T15:02:54.089Z,15.65
2023-02-16T15:05:29.579Z,15.06
2023-02-16T15:08:25.279Z,14.55
2023-02-16T15:10:56.167Z,14.27
2023-02-16T15:13:27.999Z,13.88
2023-02-16T15:15:57.660Z,13.47
2023-02-16T15:18:28.356Z,13.89
2023-02-16T15:20:57.362Z,14.08
2023-02-16T15:23:29.458Z,14.02
2023-02-16T15:26:02.996Z,14.46
2023-02-16T15:28:39.305Z,15.70
2023-02-16T15:31:18.585Z,15.73
2023-02-16T15:34:00.602Z,15.35
2023-02-16T15:36:42.540Z,14.96
2023-02-16T15:39:15.148Z,14.65
2023-02-16T15:41:44.512Z,14.60
2023-02-16T15:44:35.419Z,13.74
2023-02-16T15:47:16.551Z,14.43
2023-02-16T15:49:43.848Z,14.22
2023-02-16T15:52:17.858Z,14.00
2023-02-16T15:54:46.631Z,13.86
2023-02-16T15:57:30.862Z,13.58
2023-02-16T16:00:00.580Z,13.21
2023-02-16T16:02:36.385Z,13.43
2023-02-16T16:05:05.879Z,12.87
2023-02-16T16:07:39.912Z,13.24
2023-02-16T16:10:19.880Z,13.15
2023-02-16T16:12:48.902Z,13.12
2023-02-16T16:15:22.804Z,12.96
2023-02-16T16:17:51.237Z,12.86
2023-02-16T16:20:29.263Z,12.83
2023-02-16T16:23:04.450Z,12.34
2023-02-16T16:25:34.048Z,12.70
2023-02-16T16:28:01.846Z,12.61
2023-02-16T16:30:32.029Z,12.45
2023-02-16T16:33:07.564Z,12.15
2023-02-16T16:35:38.471Z,12.05
2023-02-16T16:38:07.664Z,12.50
2023-02-16T16:40:36.785Z,12.42
2023-02-16T16:43:03.257Z,12.40
2023-02-16T16:45:44.779Z,12.36
2023-02-16T16:48:31.699Z,11.88
2023-02-16T16:51:16.877Z,12.34
2023-02-16T16:54:06.263Z,12.30
2023-02-16T16:56:39.333Z,11.93
2023-02-16T16:59:06.643Z,12.12
2023-02-16T17:01:34.061Z,11.65
2023-02-16T17:04:00.812Z,11.55
2023-02-16T17:06:27.625Z,11.97
2023-02-16T17:08:55.231Z,11.33
2023-02-16T17:11:27.545Z,11.71
2023-02-16T17:13:55.673Z,11.07
2023-02-16T17:16:31.378Z,10.94
2023-02-16T17:18:58.019Z,11.26
2023-02-16T17:21:24.550Z,10.79
2023-02-16T17:23:53.362Z,10.69
2023-02-16T17:26:21.972Z,10.52
2023-02-16T17:28:48.818Z,10.99
2023-02-16T17:31:15.973Z,10.84
2023-02-16T17:33:42.727Z,10.70
2023-02-16T17:36:14.145Z,10.29
2023-02-16T17:38:40.701Z,10.25
2023-02-16T17:41:19.022Z,10.64
2023-02-16T17:43:45.680Z,10.62
2023-02-16T17:46:13.335Z,10.62
2023-02-16T17:48:40.812Z,10.06
2023-02-16T17:51:15.002Z,10.51
2023-02-16T17:53:41.760Z,10.57
2023-02-16T17:56:16.557Z,10.44
2023-02-16T17:58:43.768Z,10.24
2023-02-16T18:01:13.832Z,10.60
2023-02-16T18:03:40.523Z,10.06
2023-02-16T18:06:07.503Z,10.50
2023-02-16T18:08:34.130Z,10.55
2023-02-16T18:11:03.624Z,10.58
2023-02-16T18:13:30.970Z,10.22
2023-02-16T18:15:59.114Z,10.62
2023-02-16T18:18:25.809Z,10.46
2023-02-16T18:20:52.328Z,10.51
2023-02-16T18:23:18.874Z,10.61
2023-02-16T18:25:45.767Z,10.46
2023-02-16T18:28:27.103Z,10.58
2023-02-16T18:30:53.934Z,10.05
2023-02-16T18:33:21.809Z,10.64
2023-02-16T18:35:54.013Z,10.62
2023-02-16T18:38:22.079Z,10.02
2023-02-16T18:40:49.649Z,10.50
2023-02-16T18:43:16.205Z,10.29
2023-02-16T18:45:42.875Z,10.76
2023-02-16T18:48:10.297Z,10.73
2023-02-16T18:50:36.922Z,10.30
2023-02-16T18:53:03.849Z,9.97
2023-02-16T18:55:33.068Z,10.87
2023-02-16T18:58:00.977Z,10.82
2023-02-16T19:00:28.203Z,10.87
2023-02-16T19:02:55.877Z,10.50
2023-02-16T19:05:22.994Z,10.67
2023-02-16T19:07:49.665Z,10.74
2023-02-16T19:10:16.683Z,10.82
2023-02-16T19:12:43.197Z,10.34
2023-02-16T19:15:09.819Z,10.33
2023-02-16T19:17:38.488Z,10.59
2023-02-16T19:20:09.680Z,10.65
2023-02-16T19:22:37.268Z,9.60
2023-02-16T19:25:05.750Z,10.85
2023-02-16T19:27:32.654Z,10.11
2023-02-16T19:29:59.355Z,10.85
2023-02-16T19:32:25.948Z,10.92
2023-02-16T19:34:52.468Z,10.38
2023-02-16T19:37:19.122Z,10.43
2023-02-16T19:39:45.648Z,10.92
2023-02-16T19:42:12.138Z,10.82
2023-02-16T19:44:39.734Z,10.92
2023-02-16T19:47:06.707Z,10.90
2023-02-16T19:49:35.052Z,10.46
2023-02-16T19:52:03.981Z,10.32
2023-02-16T19:54:34.634Z,10.69
2023-02-16T19:57:02.229Z,10.68
2023-02-16T19:59:29.166Z,10.70
2023-02-16T20:01:55.752Z,10.43
2023-02-16T20:04:22.335Z,10.64
2023-02-16T20:06:49.617Z,10.46
2023-02-16T20:09:17.919Z,10.57
2023-02-16T20:11:44.860Z,10.50
2023-02-16T20:14:12.387Z,10.04
2023-02-16T20:16:39.839Z,10.53
2023-02-16T20:19:06.499Z,10.46
2023-02-16T20:21:33.448Z,10.24
2023-02-16T20:24:02.566Z,10.23
2023-02-16T20:26:41.534Z,10.17
2023-02-16T20:29:10.839Z,10.31
2023-02-16T20:31:47.690Z,10.44
2023-02-16T20:34:14.951Z,10.34
2023-02-16T20:36:41.526Z,10.36
2023-02-16T20:39:08.280Z,10.32
2023-02-16T20:41:34.811Z,10.24
2023-02-16T20:44:02.843Z,9.83
2023-02-16T20:46:29.834Z,10.30
2023-02-16T20:48:56.501Z,9.90
2023-02-16T20:51:23.078Z,10.31
2023-02-16T20:53:49.720Z,9.73
2023-02-16T20:56:21.150Z,10.11
2023-02-16T20:58:49.748Z,10.26
2023-02-16T21:01:19.286Z,10.35
2023-02-16T21:03:45.989Z,10.23
2023-02-16T21:06:12.489Z,10.29
2023-02-16T21:08:39.056Z,10.31
2023-02-16T21:11:05.687Z,9.91
2023-02-16T21:13:32.862Z,9.89
2023-02-16T21:15:59.422Z,9.91
2023-02-16T21:18:26.183Z,10.16
2023-02-16T21:20:52.719Z,10.32
2023-02-16T21:23:19.345Z,10.28
2023-02-16T21:25:45.920Z,10.30
2023-02-16T21:28:12.935Z,10.34
2023-02-16T21:30:41.362Z,10.26
2023-02-16T21:33:07.902Z,10.36
2023-02-16T21:35:34.531Z,10.45
2023-02-16T21:38:01.449Z,9.97
2023-02-16T21:40:46.672Z,10.03
2023-02-16T21:43:13.207Z,10.47
2023-02-16T21:45:39.710Z,10.46
2023-02-16T21:48:24.925Z,10.40
2023-02-16T21:50:51.542Z,10.37
2023-02-16T21:53:18.054Z,10.44
2023-02-16T21:56:03.409Z,10.33
2023-02-16T21:58:33.597Z,10.42
2023-02-16T22:01:00.464Z,10.56
2023-02-16T22:03:27.793Z,10.49
2023-02-16T22:05:54.321Z,10.10
2023-02-16T22:08:20.925Z,10.55
2023-02-16T22:10:47.403Z,10.58
2023-02-16T22:13:13.867Z,10.59
2023-02-16T22:15:40.442Z,10.62
2023-02-16T22:18:07.155Z,10.62
2023-02-16T22:20:33.832Z,10.60
2023-02-16T22:23:00.320Z,10.61
2023-02-16T22:25:26.953Z,10.57
2023-02-16T22:27:53.531Z,10.07
2023-02-16T22:30:20.247Z,10.64
2023-02-16T22:32:48.672Z,10.27
2023-02-16T22:35:15.313Z,10.62
2023-02-16T22:37:41.805Z,10.28
2023-02-16T22:40:08.571Z,10.70
2023-02-16T22:42:36.208Z,10.49
2023-02-16T22:45:03.563Z,10.27
2023-02-16T22:47:31.174Z,10.23
2023-02-16T22:49:57.656Z,10.57
2023-02-16T22:52:24.216Z,10.22
2023-02-16T22:54:51.654Z,10.75
2023-02-16T22:57:18.712Z,10.33
2023-02-16T22:59:45.516Z,10.41
2023-02-16T23:02:12.049Z,10.86
2023-02-16T23:04:38.714Z,10.82
2023-02-16T23:07:05.584Z,10.70
2023-02-16T23:09:32.303Z,10.76
2023-02-16T23:11:58.983Z,10.76
2023-02-16T23:14:26.036Z,10.83
2023-02-16T23:16:54.689Z,10.79
2023-02-16T23:19:24.919Z,10.44
2023-02-16T23:21:52.183Z,10.88
2023-02-16T23:24:21.659Z,10.88
2023-02-16T23:26:48.502Z,10.39
2023-02-16T23:29:15.118Z,10.40
2023-02-16T23:31:43.410Z,10.47
2023-02-16T23:34:11.483Z,10.85
2023-02-16T23:36:38.096Z,10.74
2023-02-16T23:39:11.672Z,10.88
2023-02-16T23:41:38.683Z,10.42
2023-02-16T23:44:06.146Z,10.88
2023-02-16T23:46:32.772Z,10.78
2023-02-16T23:48:59.340Z,10.92
2023-02-16T23:51:26.325Z,10.93
2023-02-16T23:53:53.134Z,10.90
2023-02-16T23:56:24.964Z,10.59
2023-02-16T23:58:52.254Z,10.90
